Time;durP1;ratioP1;P1;durP2;ratioP2;P2;SDS_P1;SDS_P2;PMS_P1;PMS_P2;Temp;Humidity;BMP_temperature;BMP_pressure;BME280_temperature;BME280_humidity;BME280_pressure;Samples;Min_cycle;Max_cycle;Signal;HPM_P1;HPM_P2
2023/04/09 00:00:02;;;;;;;3.33;1.63;;;10.10;80.70;;;;;;5118128;27;20126;-68
2023/04/09 00:02:28;;;;;;;2.85;1.55;;;10.10;80.80;;;;;;5153568;27;20042;-69
2023/04/09 00:04:53;;;;;;;3.03;1.60;;;10.10;80.80;;;;;;5153964;27;20031;-69
2023/04/09 00:07:19;;;;;;;3.05;1.80;;;10.10;80.80;;;;;;5135121;27;20130;-69
2023/04/09 00:09:45;;;;;;;2.60;1.58;;;10.10;80.80;;;;;;5153329;27;20045;-68
2023/04/09 00:12:10;;;;;;;2.83;1.48;;;10.10;80.90;;;;;;5153885;27;20042;-70
2023/04/09 00:14:36;;;;;;;3.30;1.50;;;10.10;80.90;;;;;;5153838;27;20039;-70
2023/04/09 00:17:02;;;;;;;2.97;1.63;;;10.10;80.90;;;;;;5100929;27;20067;-69
2023/04/09 00:19:27;;;;;;;2.58;1.60;;;10.10;81.00;;;;;;5135421;27;20494;-70
2023/04/09 00:21:56;;;;;;;2.50;1.50;;;10.10;80.90;;;;;;5138777;27;20031;-69
2023/04/09 00:24:21;;;;;;;2.38;1.52;;;10.10;80.90;;;;;;5139078;27;20046;-70
2023/04/09 00:26:48;;;;;;;2.60;1.50;;;10.20;81.00;;;;;;5157004;27;20126;-70
2023/04/09 00:29:13;;;;;;;2.70;1.50;;;10.00;81.00;;;;;;5157232;27;20038;-70
2023/04/09 00:31:39;;;;;;;2.50;1.67;;;10.10;81.00;;;;;;5156710;27;20043;-70
2023/04/09 00:34:05;;;;;;;1.92;1.20;;;10.00;81.00;;;;;;5156774;27;20042;-69
2023/04/09 00:36:31;;;;;;;2.90;1.63;;;10.10;81.00;;;;;;5138143;27;20482;-69
2023/04/09 00:38:57;;;;;;;2.55;1.50;;;10.10;81.10;;;;;;5156667;27;20134;-70
2023/04/09 00:41:23;;;;;;;2.33;1.52;;;10.10;81.10;;;;;;5156635;27;20045;-70
2023/04/09 00:43:49;;;;;;;2.22;1.40;;;10.10;81.10;;;;;;5156721;27;20122;-69
2023/04/09 00:46:15;;;;;;;2.58;1.60;;;10.00;81.00;;;;;;5156782;27;20058;-69
2023/04/09 00:48:41;;;;;;;2.38;1.58;;;10.00;81.10;;;;;;5156973;27;20129;-69
2023/04/09 00:51:07;;;;;;;2.80;1.55;;;10.00;81.10;;;;;;5156834;27;20130;-69
2023/04/09 00:53:33;;;;;;;2.72;1.67;;;10.00;81.10;;;;;;5156579;27;20441;-69
2023/04/09 00:56:00;;;;;;;3.42;1.95;;;10.00;81.10;;;;;;5156503;27;20121;-70
2023/04/09 00:58:26;;;;;;;3.40;1.75;;;10.00;81.20;;;;;;5137690;27;20405;-69
2023/04/09 01:00:51;;;;;;;3.30;1.77;;;10.00;81.20;;;;;;5156376;27;20038;-70
2023/04/09 01:03:17;;;;;;;2.88;1.95;;;10.00;81.20;;;;;;5156245;27;20126;-70
2023/04/09 01:05:53;;;;;;;3.45;1.92;;;10.00;81.30;;;;;;5137776;27;20042;-70
2023/04/09 01:08:44;;;;;;;2.97;1.75;;;10.00;81.30;;;;;;5156222;27;20056;-70
2023/04/09 01:11:29;;;;;;;2.20;1.35;;;10.00;81.30;;;;;;5154787;27;20050;-70
2023/04/09 01:14:04;;;;;;;2.55;1.42;;;10.00;81.30;;;;;;5154657;27;20134;-70
2023/04/09 01:16:33;;;;;;;3.50;1.70;;;9.90;81.30;;;;;;5156428;27;20438;-70
2023/04/09 01:19:03;;;;;;;2.65;1.50;;;10.00;81.40;;;;;;5155991;27;20043;-69
2023/04/09 01:21:32;;;;;;;3.30;1.50;;;10.00;81.40;;;;;;5155911;27;20539;-70
2023/04/09 01:24:18;;;;;;;3.22;1.70;;;10.00;81.40;;;;;;5137494;27;20043;-69
2023/04/09 01:26:57;;;;;;;2.78;1.70;;;9.90;81.40;;;;;;5156423;27;20087;-70
2023/04/09 01:29:24;;;;;;;3.33;1.77;;;10.00;81.50;;;;;;5155827;27;20043;-69
2023/04/09 01:31:52;;;;;;;2.85;1.77;;;10.00;81.50;;;;;;5155305;27;20050;-70
2023/04/09 01:34:19;;;;;;;2.60;1.70;;;10.00;81.50;;;;;;5155641;27;20058;-70
2023/04/09 01:36:50;;;;;;;2.95;1.85;;;10.00;81.50;;;;;;5155903;27;20493;-69
2023/04/09 01:39:17;;;;;;;3.17;1.73;;;9.90;81.60;;;;;;5156123;27;20046;-69
2023/04/09 01:41:42;;;;;;;3.28;1.90;;;9.90;81.50;;;;;;5155525;27;20086;-70
2023/04/09 01:44:10;;;;;;;4.38;1.75;;;9.90;81.60;;;;;;5136974;27;20034;-70
2023/04/09 01:46:36;;;;;;;3.38;1.70;;;9.90;81.60;;;;;;5155626;27;20071;-70
2023/04/09 01:49:02;;;;;;;4.28;2.00;;;10.00;81.60;;;;;;5155633;27;20050;-70
2023/04/09 01:51:30;;;;;;;2.95;1.70;;;9.90;81.60;;;;;;5155625;27;20042;-70
2023/04/09 01:53:56;;;;;;;2.50;1.60;;;9.90;81.60;;;;;;5155584;27;20093;-70
2023/04/09 01:56:21;;;;;;;2.75;1.63;;;9.90;81.70;;;;;;5155736;27;20038;-70
2023/04/09 01:58:47;;;;;;;2.92;1.73;;;10.00;81.70;;;;;;5153328;27;20444;-69
2023/04/09 02:01:25;;;;;;;2.05;1.30;;;9.90;81.70;;;;;;5155427;27;20047;-70
2023/04/09 02:03:57;;;;;;;2.45;1.50;;;10.00;81.80;;;;;;5154139;27;20054;-70
2023/04/09 02:06:50;;;;;;;2.30;1.60;;;9.90;81.70;;;;;;5120415;27;20046;-70
2023/04/09 02:09:19;;;;;;;2.65;1.75;;;9.90;81.70;;;;;;5105278;27;20038;-70
2023/04/09 02:11:46;;;;;;;3.00;1.60;;;9.90;81.70;;;;;;5136684;27;20042;-70
2023/04/09 02:14:12;;;;;;;2.30;1.42;;;10.00;81.80;;;;;;5155125;27;20046;-70
2023/04/09 02:16:39;;;;;;;2.88;1.65;;;9.90;81.70;;;;;;5155159;27;20053;-70
2023/04/09 02:19:04;;;;;;;1.73;1.15;;;9.90;81.80;;;;;;5155043;27;20045;-70
2023/04/09 02:21:31;;;;;;;2.72;1.50;;;9.90;81.80;;;;;;5155439;27;20126;-70
2023/04/09 02:23:56;;;;;;;2.60;1.38;;;9.90;81.80;;;;;;5155170;27;20122;-69
2023/04/09 02:26:23;;;;;;;2.25;1.50;;;9.90;81.90;;;;;;5152917;27;20092;-70
2023/04/09 02:28:49;;;;;;;2.85;1.50;;;9.90;81.90;;;;;;5154986;27;20072;-70
2023/04/09 02:31:14;;;;;;;3.20;1.77;;;9.90;81.80;;;;;;5155197;27;20424;-70
2023/04/09 02:33:40;;;;;;;2.13;1.30;;;9.90;81.80;;;;;;5136344;27;20222;-69
2023/04/09 02:36:09;;;;;;;2.35;1.27;;;9.90;81.90;;;;;;5154792;27;20035;-70
2023/04/09 02:38:35;;;;;;;1.83;1.38;;;9.80;81.80;;;;;;5136789;27;20497;-70
2023/04/09 02:41:00;;;;;;;2.42;1.30;;;9.90;81.90;;;;;;5155196;27;20125;-70
2023/04/09 02:43:26;;;;;;;1.92;1.30;;;9.80;81.80;;;;;;5153685;27;20043;-69
2023/04/09 02:45:51;;;;;;;2.42;1.60;;;9.90;81.90;;;;;;5136489;27;20058;-70
2023/04/09 02:48:17;;;;;;;3.30;1.70;;;9.80;81.90;;;;;;5135935;27;20490;-70
2023/04/09 02:50:43;;;;;;;2.40;1.40;;;9.80;81.90;;;;;;5154549;27;20043;-70
2023/04/09 02:53:08;;;;;;;2.53;1.55;;;9.80;81.90;;;;;;5154874;27;20042;-69
2023/04/09 02:55:34;;;;;;;3.30;1.75;;;9.80;81.90;;;;;;5154399;27;20129;-69
2023/04/09 02:57:59;;;;;;;2.78;1.58;;;9.80;81.90;;;;;;5154419;27;20035;-69
2023/04/09 03:00:25;;;;;;;2.75;1.67;;;9.80;81.90;;;;;;5154518;27;20366;-70
2023/04/09 03:02:51;;;;;;;3.13;1.80;;;9.80;81.90;;;;;;5154387;27;20030;-70
2023/04/09 03:05:16;;;;;;;3.88;2.05;;;9.80;82.00;;;;;;5154611;27;20397;-69
2023/04/09 03:07:42;;;;;;;3.08;1.92;;;9.80;82.00;;;;;;5154336;27;20114;-69
2023/04/09 03:10:08;;;;;;;3.08;1.80;;;9.80;81.90;;;;;;5154267;27;20367;-70
2023/04/09 03:12:34;;;;;;;3.38;1.77;;;9.80;82.00;;;;;;5154241;27;20079;-70
2023/04/09 03:15:00;;;;;;;3.83;1.98;;;9.80;82.00;;;;;;5154194;27;20042;-70
2023/04/09 03:17:26;;;;;;;2.97;1.85;;;9.80;82.00;;;;;;5154128;27;20038;-70
2023/04/09 03:19:52;;;;;;;2.72;1.58;;;9.80;82.00;;;;;;5154084;27;20509;-70
2023/04/09 03:22:17;;;;;;;2.55;1.60;;;9.80;82.00;;;;;;5154193;27;20065;-70
2023/04/09 03:24:44;;;;;;;4.07;1.60;;;9.80;82.10;;;;;;5154086;27;20121;-70
2023/04/09 03:27:09;;;;;;;3.33;1.70;;;9.70;82.10;;;;;;5154135;27;20038;-70
2023/04/09 03:29:35;;;;;;;2.78;1.67;;;9.80;82.10;;;;;;5153770;27;20049;-70
2023/04/09 03:32:00;;;;;;;3.25;1.65;;;9.70;82.10;;;;;;5135364;27;20091;-70
2023/04/09 03:34:26;;;;;;;1.95;1.40;;;9.70;82.20;;;;;;5135853;27;20041;-70
2023/04/09 03:36:52;;;;;;;3.45;1.77;;;9.80;82.20;;;;;;5153764;27;20401;-70
2023/04/09 03:39:17;;;;;;;3.40;1.80;;;9.70;82.20;;;;;;5154030;27;20087;-70
2023/04/09 03:41:43;;;;;;;3.08;1.65;;;9.80;82.30;;;;;;5154135;27;20569;-70
2023/04/09 03:44:08;;;;;;;3.28;1.90;;;9.70;82.20;;;;;;5153809;27;20091;-70
2023/04/09 03:46:34;;;;;;;3.15;1.67;;;9.80;82.30;;;;;;5153698;27;20063;-69
2023/04/09 03:48:59;;;;;;;3.17;1.65;;;9.70;82.30;;;;;;5153866;27;20045;-69
2023/04/09 03:51:26;;;;;;;3.25;1.58;;;9.70;82.40;;;;;;5154175;27;20038;-70
2023/04/09 03:53:51;;;;;;;2.33;1.25;;;9.70;82.40;;;;;;5134955;27;20035;-69
2023/04/09 03:56:17;;;;;;;3.25;1.80;;;9.70;82.30;;;;;;5101008;27;20050;-70
2023/04/09 03:58:43;;;;;;;4.10;1.90;;;9.70;82.40;;;;;;5153415;27;20049;-70
2023/04/09 04:01:08;;;;;;;3.50;1.67;;;9.70;82.50;;;;;;5154111;27;20500;-70
2023/04/09 04:03:34;;;;;;;2.28;1.38;;;9.80;82.50;;;;;;5153895;27;20034;-69
2023/04/09 04:06:01;;;;;;;3.03;1.60;;;9.70;82.50;;;;;;5153805;27;20550;-70
2023/04/09 04:08:27;;;;;;;2.83;1.40;;;9.60;82.40;;;;;;5153742;27;20095;-70
2023/04/09 04:10:53;;;;;;;3.22;1.83;;;9.80;82.50;;;;;;5153761;27;20047;-70
2023/04/09 04:13:18;;;;;;;2.97;1.55;;;9.60;82.40;;;;;;5153746;27;20546;-69
2023/04/09 04:15:44;;;;;;;2.35;1.50;;;9.60;82.50;;;;;;5135377;27;20091;-69
2023/04/09 04:18:10;;;;;;;3.47;2.03;;;9.60;82.50;;;;;;5153745;27;20068;-70
2023/04/09 04:20:37;;;;;;;3.13;1.83;;;9.50;82.50;;;;;;5153704;27;20035;-69
2023/04/09 04:23:03;;;;;;;3.58;2.10;;;9.60;82.60;;;;;;5153558;27;20045;-69
2023/04/09 04:25:30;;;;;;;3.03;1.88;;;9.50;82.60;;;;;;5153494;27;20042;-69
2023/04/09 04:27:56;;;;;;;3.40;1.90;;;9.50;82.70;;;;;;5153533;27;20397;-69
2023/04/09 04:30:21;;;;;;;3.47;1.88;;;9.50;82.80;;;;;;5153879;27;20031;-69
2023/04/09 04:32:47;;;;;;;3.88;2.50;;;9.50;82.80;;;;;;5117772;27;20480;-69
2023/04/09 04:35:13;;;;;;;2.83;1.83;;;9.50;82.80;;;;;;5134865;27;20482;-70
2023/04/09 04:37:39;;;;;;;3.20;1.70;;;9.50;82.80;;;;;;5153484;27;20035;-70
2023/04/09 04:40:06;;;;;;;3.97;2.03;;;9.40;82.80;;;;;;5134999;27;20446;-70
2023/04/09 04:42:33;;;;;;;2.78;1.70;;;9.40;82.80;;;;;;5153414;27;20043;-70
2023/04/09 04:44:58;;;;;;;2.55;1.60;;;9.40;82.90;;;;;;5134987;27;20050;-69
2023/04/09 04:47:24;;;;;;;3.67;1.90;;;9.30;82.90;;;;;;5134908;27;20047;-70
2023/04/09 04:49:50;;;;;;;3.85;1.98;;;9.30;82.90;;;;;;5117628;27;20071;-69
2023/04/09 04:52:15;;;;;;;4.43;2.00;;;9.30;83.00;;;;;;5153302;27;20039;-70
2023/04/09 04:54:41;;;;;;;3.50;1.83;;;9.20;83.00;;;;;;5153678;27;20095;-69
2023/04/09 04:57:07;;;;;;;3.28;1.90;;;9.20;83.10;;;;;;5153655;27;20107;-69
2023/04/09 04:59:32;;;;;;;3.22;1.98;;;9.10;83.10;;;;;;5152994;27;20054;-70
2023/04/09 05:01:58;;;;;;;3.25;1.80;;;9.20;83.10;;;;;;5134630;27;20077;-70
2023/04/09 05:04:23;;;;;;;2.92;1.60;;;9.10;83.10;;;;;;5153464;27;20030;-69
2023/04/09 05:06:49;;;;;;;3.45;1.70;;;9.10;83.20;;;;;;5155258;27;20034;-70
2023/04/09 05:09:15;;;;;;;2.70;1.60;;;9.00;83.60;;;;;;5156954;27;20043;-70
2023/04/09 05:11:41;;;;;;;3.25;1.70;;;8.90;83.20;;;;;;5156599;27;20504;-70
2023/04/09 05:14:06;;;;;;;2.45;1.40;;;8.90;83.30;;;;;;5156384;27;20046;-70
2023/04/09 05:16:32;;;;;;;2.50;1.38;;;8.90;83.50;;;;;;5138158;27;20072;-69
2023/04/09 05:18:58;;;;;;;2.65;1.58;;;8.80;83.50;;;;;;5156764;27;20042;-69
2023/04/09 05:21:23;;;;;;;2.83;1.55;;;8.70;83.60;;;;;;5156380;27;20031;-70
2023/04/09 05:23:49;;;;;;;3.00;1.50;;;8.70;83.60;;;;;;5156465;27;20039;-70
2023/04/09 05:26:14;;;;;;;3.40;1.63;;;8.70;83.80;;;;;;5156775;27;20050;-69
2023/04/09 05:28:40;;;;;;;3.08;1.65;;;8.60;83.80;;;;;;5137581;27;20046;-70
2023/04/09 05:31:11;;;;;;;3.03;1.70;;;8.50;83.80;;;;;;5156119;27;20042;-70
2023/04/09 05:33:38;;;;;;;2.30;1.40;;;8.50;83.90;;;;;;5156373;27;20405;-70
2023/04/09 05:36:04;;;;;;;2.95;1.67;;;8.50;84.00;;;;;;5156293;27;20046;-70
2023/04/09 05:38:30;;;;;;;2.75;1.60;;;8.40;84.00;;;;;;5156587;27;20070;-70
2023/04/09 05:40:56;;;;;;;3.50;1.65;;;8.30;84.00;;;;;;5156001;27;20483;-70
2023/04/09 05:43:21;;;;;;;2.60;1.67;;;8.30;84.00;;;;;;5156638;27;20034;-69
2023/04/09 05:45:47;;;;;;;3.20;1.80;;;8.30;84.00;;;;;;5156100;27;20044;-69
2023/04/09 05:48:13;;;;;;;3.33;1.65;;;8.20;83.90;;;;;;5156503;27;20039;-69
2023/04/09 05:50:38;;;;;;;3.00;1.80;;;8.20;84.00;;;;;;5156069;27;20542;-69
2023/04/09 05:53:04;;;;;;;3.67;1.75;;;8.20;84.00;;;;;;5155879;27;20035;-69
2023/04/09 05:55:31;;;;;;;3.42;1.63;;;8.20;83.90;;;;;;5137653;27;20031;-69
2023/04/09 05:57:57;;;;;;;3.50;1.95;;;8.20;84.00;;;;;;5155887;27;20122;-69
2023/04/09 06:00:23;;;;;;;3.00;1.90;;;8.20;84.00;;;;;;5155707;27;20129;-69
2023/04/09 06:02:49;;;;;;;4.18;1.90;;;8.20;84.00;;;;;;5119929;27;20042;-69
2023/04/09 06:05:15;;;;;;;2.72;1.63;;;8.20;84.00;;;;;;5155826;27;20490;-69
2023/04/09 06:07:40;;;;;;;3.05;1.77;;;8.10;83.90;;;;;;5155878;27;20065;-69
2023/04/09 06:10:07;;;;;;;3.63;1.92;;;8.20;83.80;;;;;;5137327;27;20051;-69
2023/04/09 06:12:34;;;;;;;4.82;2.15;;;8.30;83.80;;;;;;5155645;27;20409;-69
2023/04/09 06:15:00;;;;;;;2.92;1.67;;;8.30;83.60;;;;;;5155655;27;20035;-69
2023/04/09 06:17:27;;;;;;;4.60;2.15;;;8.30;84.10;;;;;;5155666;27;20046;-68
2023/04/09 06:19:52;;;;;;;3.53;1.88;;;8.30;83.40;;;;;;5155713;27;20075;-70
2023/04/09 06:22:18;;;;;;;3.95;2.08;;;8.40;83.40;;;;;;5155597;27;20131;-70
2023/04/09 06:24:44;;;;;;;2.75;1.60;;;8.30;83.30;;;;;;5155369;27;20485;-69
2023/04/09 06:27:10;;;;;;;3.50;1.90;;;8.30;83.20;;;;;;5155238;27;20053;-69
2023/04/09 06:29:35;;;;;;;3.95;1.95;;;8.40;83.20;;;;;;5155250;27;20042;-69
2023/04/09 06:32:01;;;;;;;4.82;2.33;;;8.40;83.10;;;;;;5136794;27;20424;-69
2023/04/09 06:34:26;;;;;;;4.88;2.40;;;8.40;83.10;;;;;;5155110;27;20095;-69
2023/04/09 06:36:52;;;;;;;3.47;2.05;;;8.40;83.00;;;;;;5155305;27;20052;-69
2023/04/09 06:39:18;;;;;;;2.42;1.58;;;8.50;83.10;;;;;;5155091;27;20099;-69
2023/04/09 06:41:43;;;;;;;2.88;1.67;;;8.60;83.00;;;;;;5136587;27;20054;-69
2023/04/09 06:44:09;;;;;;;4.50;2.35;;;8.60;82.80;;;;;;5136513;27;20038;-69
2023/04/09 06:46:35;;;;;;;4.53;2.17;;;8.60;82.70;;;;;;5155034;27;20043;-69
2023/04/09 06:49:00;;;;;;;3.25;1.85;;;8.80;82.70;;;;;;5155008;27;20378;-69
2023/04/09 06:51:26;;;;;;;4.47;2.10;;;8.70;82.50;;;;;;5154941;27;20061;-69
2023/04/09 06:53:51;;;;;;;4.75;2.58;;;8.70;82.50;;;;;;5136445;27;20043;-70
2023/04/09 06:56:17;;;;;;;3.85;1.95;;;8.80;82.40;;;;;;5136299;27;20047;-69
2023/04/09 06:58:42;;;;;;;4.47;2.10;;;8.90;82.40;;;;;;5136163;27;20043;-69
2023/04/09 07:01:08;;;;;;;4.20;2.33;;;8.90;82.40;;;;;;5154689;27;20542;-69
2023/04/09 07:03:34;;;;;;;3.80;2.20;;;8.90;82.30;;;;;;5154744;27;20058;-70
2023/04/09 07:06:00;;;;;;;3.38;2.08;;;9.00;82.20;;;;;;5154977;27;20038;-69
2023/04/09 07:08:25;;;;;;;4.05;2.22;;;9.00;82.00;;;;;;5155020;27;20035;-69
2023/04/09 07:10:51;;;;;;;4.03;2.17;;;9.10;82.10;;;;;;5136121;27;20047;-69
2023/04/09 07:13:17;;;;;;;3.78;2.10;;;9.20;82.10;;;;;;5154518;27;20129;-69
2023/04/09 07:15:42;;;;;;;3.47;1.90;;;9.30;81.90;;;;;;5154475;27;20050;-69
2023/04/09 07:18:08;;;;;;;4.95;2.40;;;9.30;81.90;;;;;;5154445;27;20079;-69
2023/04/09 07:20:34;;;;;;;4.07;2.20;;;9.30;81.70;;;;;;5154387;27;20043;-69
2023/04/09 07:22:59;;;;;;;4.28;2.20;;;9.40;81.80;;;;;;5154842;27;20482;-69
2023/04/09 07:25:25;;;;;;;4.32;2.47;;;9.40;81.70;;;;;;5154646;27;20087;-69
2023/04/09 07:27:51;;;;;;;4.78;2.38;;;9.50;81.70;;;;;;5154424;27;20038;-69
2023/04/09 07:30:17;;;;;;;4.28;2.45;;;9.50;81.50;;;;;;5153716;27;20047;-67
2023/04/09 07:32:42;;;;;;;4.38;2.25;;;9.60;81.50;;;;;;5154628;27;20125;-69
2023/04/09 07:35:08;;;;;;;4.30;2.20;;;9.70;81.40;;;;;;5118606;27;20090;-69
2023/04/09 07:37:34;;;;;;;3.38;1.85;;;9.70;81.30;;;;;;5154290;27;20066;-69
2023/04/09 07:40:00;;;;;;;5.28;2.25;;;9.80;81.20;;;;;;5154414;27;20119;-69
2023/04/09 07:42:27;;;;;;;3.70;1.92;;;9.90;81.20;;;;;;5154691;27;20042;-69
2023/04/09 07:44:52;;;;;;;4.57;2.20;;;10.10;81.10;;;;;;5154075;27;20375;-69
2023/04/09 07:47:18;;;;;;;3.83;2.03;;;10.00;81.00;;;;;;5154132;27;20083;-69
2023/04/09 07:49:43;;;;;;;3.90;2.13;;;10.10;80.80;;;;;;5154094;27;20054;-68
2023/04/09 07:52:09;;;;;;;3.17;1.90;;;10.20;80.80;;;;;;5154011;27;20441;-69
2023/04/09 07:54:35;;;;;;;3.80;2.13;;;10.30;80.70;;;;;;5154018;27;20125;-69
2023/04/09 07:57:01;;;;;;;3.00;1.83;;;10.40;80.60;;;;;;5153927;27;20045;-69
2023/04/09 07:59:27;;;;;;;3.40;1.80;;;10.50;80.40;;;;;;5154236;27;20122;-69
2023/04/09 08:01:53;;;;;;;4.32;2.00;;;10.60;80.30;;;;;;5153977;27;20457;-69
2023/04/09 08:04:18;;;;;;;4.00;2.10;;;10.80;80.20;;;;;;5153649;27;20035;-69
2023/04/09 08:06:49;;;;;;;3.97;2.08;;;10.80;80.00;;;;;;5153753;27;20035;-69
2023/04/09 08:09:15;;;;;;;3.37;2.10;;;11.00;79.80;;;;;;5153630;27;20038;-69
2023/04/09 08:11:41;;;;;;;3.47;1.80;;;11.10;79.70;;;;;;5135008;27;20635;-69
2023/04/09 08:14:11;;;;;;;2.90;1.60;;;11.30;79.50;;;;;;5153676;27;20034;-69
2023/04/09 08:16:41;;;;;;;3.38;2.00;;;11.40;79.40;;;;;;5153699;27;20118;-69
2023/04/09 08:19:08;;;;;;;3.72;1.85;;;11.60;79.30;;;;;;5153949;27;20099;-69
2023/04/09 08:21:37;;;;;;;3.92;2.20;;;11.70;79.10;;;;;;5153473;27;20066;-68
2023/04/09 08:24:04;;;;;;;4.13;2.20;;;11.90;78.90;;;;;;5153738;27;20031;-68
2023/04/09 08:26:30;;;;;;;3.83;1.92;;;12.00;78.60;;;;;;5153779;27;20031;-69
2023/04/09 08:28:56;;;;;;;2.83;1.90;;;12.20;78.50;;;;;;5153626;27;20043;-69
2023/04/09 08:31:22;;;;;;;3.13;1.83;;;12.30;78.30;;;;;;5153400;27;20042;-69
2023/04/09 08:33:48;;;;;;;2.95;1.92;;;12.40;78.20;;;;;;5134997;27;20066;-69
2023/04/09 08:36:13;;;;;;;4.22;2.35;;;12.50;78.20;;;;;;5118502;27;20047;-69
2023/04/09 08:38:39;;;;;;;3.78;2.22;;;12.70;78.20;;;;;;5153953;27;20489;-69
2023/04/09 08:41:05;;;;;;;4.00;2.33;;;12.80;78.00;;;;;;5154764;27;20374;-69
2023/04/09 08:43:33;;;;;;;3.35;2.03;;;12.90;77.70;;;;;;5157617;27;20039;-69
2023/04/09 08:46:01;;;;;;;2.78;1.85;;;13.00;77.70;;;;;;5156889;27;20051;-69
2023/04/09 08:48:27;;;;;;;3.40;2.17;;;13.10;77.60;;;;;;5156846;27;20042;-69
2023/04/09 08:50:53;;;;;;;4.40;2.33;;;13.30;77.60;;;;;;5156800;27;20042;-69
2023/04/09 08:53:21;;;;;;;4.03;2.13;;;13.40;77.50;;;;;;5157109;27;20038;-70
2023/04/09 08:55:47;;;;;;;3.53;2.08;;;13.40;77.30;;;;;;5156180;27;20086;-69
2023/04/09 08:58:13;;;;;;;3.65;2.30;;;13.50;77.40;;;;;;5155713;27;20043;-69
2023/04/09 09:00:39;;;;;;;3.47;2.15;;;13.60;77.40;;;;;;5136865;27;20492;-69
2023/04/09 09:03:09;;;;;;;4.50;2.60;;;13.70;77.30;;;;;;5155561;27;20039;-69
2023/04/09 09:05:44;;;;;;;3.13;1.95;;;13.90;77.20;;;;;;5155674;27;20058;-69
2023/04/09 09:08:22;;;;;;;3.60;2.15;;;13.90;76.90;;;;;;5137034;27;20081;-69
2023/04/09 09:10:48;;;;;;;3.63;2.03;;;14.10;76.80;;;;;;5155809;27;20039;-69
2023/04/09 09:13:23;;;;;;;3.00;1.92;;;14.10;76.80;;;;;;5156345;27;20050;-69
2023/04/09 09:15:55;;;;;;;3.58;2.30;;;14.10;76.80;;;;;;5156411;27;20538;-69
2023/04/09 09:18:38;;;;;;;3.92;2.30;;;14.10;76.70;;;;;;5138621;27;20050;-69
2023/04/09 09:21:13;;;;;;;4.07;2.28;;;14.20;76.80;;;;;;5156294;27;20035;-69
2023/04/09 09:23:39;;;;;;;4.88;2.30;;;14.20;76.80;;;;;;5156723;27;20039;-69
2023/04/09 09:26:13;;;;;;;3.88;2.30;;;14.30;76.90;;;;;;5156344;27;20051;-69
2023/04/09 09:28:40;;;;;;;3.45;2.00;;;14.40;76.60;;;;;;5156306;27;20042;-69
2023/04/09 09:31:08;;;;;;;5.13;2.38;;;14.50;76.70;;;;;;5157097;27;20043;-69
2023/04/09 09:33:34;;;;;;;3.72;2.28;;;14.60;76.50;;;;;;5156189;27;20054;-67
2023/04/09 09:36:02;;;;;;;3.78;2.03;;;14.70;77.00;;;;;;5156084;27;20137;-67
2023/04/09 09:38:29;;;;;;;5.05;3.05;;;14.70;76.10;;;;;;5155999;27;20071;-69
2023/04/09 09:40:55;;;;;;;4.57;2.60;;;14.80;76.10;;;;;;5156507;27;20041;-69
2023/04/09 09:43:21;;;;;;;3.75;2.30;;;14.90;76.00;;;;;;5156072;27;20055;-69
2023/04/09 09:45:47;;;;;;;3.33;2.13;;;14.80;75.90;;;;;;5155933;27;20501;-69
2023/04/09 09:48:13;;;;;;;3.38;2.15;;;14.80;76.10;;;;;;5155955;27;20509;-69
2023/04/09 09:50:41;;;;;;;3.83;2.28;;;14.90;76.20;;;;;;5155772;27;20038;-67
2023/04/09 09:53:09;;;;;;;4.03;2.28;;;15.00;76.10;;;;;;5137410;27;20050;-70
2023/04/09 09:55:40;;;;;;;4.38;2.45;;;15.10;75.90;;;;;;5155809;27;20034;-67
2023/04/09 09:58:22;;;;;;;4.50;2.53;;;15.10;75.60;;;;;;5155770;27;20042;-70
2023/04/09 10:00:50;;;;;;;3.88;2.42;;;15.20;75.60;;;;;;5155748;27;20034;-68
2023/04/09 10:03:23;;;;;;;4.10;2.33;;;15.20;75.50;;;;;;5155716;27;20093;-67
2023/04/09 10:05:50;;;;;;;3.28;1.90;;;15.10;75.80;;;;;;5155510;27;20038;-70
2023/04/09 10:08:17;;;;;;;3.83;2.08;;;15.10;75.90;;;;;;5156029;27;20038;-67
2023/04/09 10:10:43;;;;;;;2.38;1.73;;;15.00;76.00;;;;;;5137132;27;20035;-67
2023/04/09 10:13:16;;;;;;;3.80;2.17;;;15.00;75.80;;;;;;5155683;27;20038;-67
2023/04/09 10:15:43;;;;;;;3.28;1.98;;;15.00;75.70;;;;;;5120447;27;20042;-70
2023/04/09 10:18:09;;;;;;;2.75;1.85;;;15.10;75.60;;;;;;5155306;27;20035;-68
2023/04/09 10:20:45;;;;;;;3.83;2.25;;;15.10;75.60;;;;;;5155529;27;20038;-70
2023/04/09 10:23:18;;;;;;;3.78;2.28;;;15.20;75.50;;;;;;5154595;27;20042;-70
2023/04/09 10:25:44;;;;;;;3.15;1.98;;;15.30;75.50;;;;;;5155275;27;20521;-70
2023/04/09 10:28:17;;;;;;;4.13;2.40;;;15.20;75.30;;;;;;5155597;27;20113;-70
2023/04/09 10:30:43;;;;;;;3.03;1.85;;;15.10;75.30;;;;;;5155696;27;20473;-70
2023/04/09 10:33:14;;;;;;;3.72;2.20;;;15.10;75.30;;;;;;5155548;27;20031;-70
2023/04/09 10:35:41;;;;;;;3.17;1.83;;;15.20;75.10;;;;;;5135735;27;20038;-69
2023/04/09 10:38:08;;;;;;;2.58;1.80;;;15.20;75.10;;;;;;5153747;27;20129;-70
2023/04/09 10:40:38;;;;;;;3.03;1.75;;;15.30;74.90;;;;;;5155388;27;20038;-70
2023/04/09 10:43:05;;;;;;;2.97;2.00;;;15.30;74.60;;;;;;5137753;27;20046;-70
2023/04/09 10:45:40;;;;;;;3.85;1.90;;;15.30;74.40;;;;;;5155193;27;20135;-68
2023/04/09 10:48:11;;;;;;;3.83;1.92;;;15.40;74.20;;;;;;5154944;27;20035;-68
2023/04/09 10:50:37;;;;;;;;;;;15.50;74.00;;;;;;5155490;27;20039;-70
2023/04/09 10:53:03;;;;;;;2.92;1.83;;;15.40;74.00;;;;;;5154859;27;20417;-70
2023/04/09 10:55:40;;;;;;;2.53;1.50;;;15.40;74.10;;;;;;5155210;27;20045;-70
2023/04/09 10:58:08;;;;;;;2.55;1.50;;;15.40;74.00;;;;;;5154816;27;20051;-70
2023/04/09 11:00:40;;;;;;;2.08;1.30;;;15.50;73.90;;;;;;5154622;27;20089;-70
2023/04/09 11:03:24;;;;;;;1.85;1.40;;;15.40;73.60;;;;;;5154180;27;20046;-68
2023/04/09 11:05:54;;;;;;;2.60;1.48;;;15.50;73.40;;;;;;5154945;27;20525;-68
2023/04/09 11:08:20;;;;;;;2.22;1.33;;;15.60;73.20;;;;;;5154619;27;20129;-68
2023/04/09 11:10:47;;;;;;;2.17;1.35;;;15.70;72.80;;;;;;5136196;27;20129;-68
2023/04/09 11:13:14;;;;;;;1.73;1.20;;;15.80;72.60;;;;;;5136105;27;20477;-69
2023/04/09 11:15:39;;;;;;;1.48;1.20;;;15.80;72.30;;;;;;5155008;27;20026;-69
2023/04/09 11:18:05;;;;;;;1.85;1.20;;;15.90;72.00;;;;;;5136158;27;20035;-68
2023/04/09 11:20:33;;;;;;;1.60;1.13;;;15.90;71.80;;;;;;5154362;27;20043;-69
2023/04/09 11:23:00;;;;;;;2.00;1.20;;;15.90;71.60;;;;;;5135921;27;20109;-68
2023/04/09 11:25:29;;;;;;;1.80;1.13;;;15.90;71.50;;;;;;5154465;27;20133;-69
2023/04/09 11:27:55;;;;;;;1.73;1.17;;;15.90;71.30;;;;;;5135754;27;20432;-69
2023/04/09 11:30:21;;;;;;;1.98;1.05;;;15.90;71.40;;;;;;5154188;27;20043;-69
2023/04/09 11:32:48;;;;;;;1.63;1.02;;;15.90;71.30;;;;;;5135953;27;20054;-70
2023/04/09 11:35:17;;;;;;;1.42;1.05;;;15.80;71.10;;;;;;5154074;27;20066;-70
2023/04/09 11:37:44;;;;;;;1.52;1.13;;;16.00;70.90;;;;;;5154013;27;20064;-69
2023/04/09 11:40:19;;;;;;;1.58;1.15;;;16.00;70.50;;;;;;5135638;27;20046;-69
2023/04/09 11:42:49;;;;;;;1.05;0.90;;;16.10;70.20;;;;;;5118725;27;20034;-69
2023/04/09 11:45:16;;;;;;;1.75;1.20;;;16.10;70.10;;;;;;5154375;27;20051;-69
2023/04/09 11:47:43;;;;;;;1.90;1.40;;;16.10;69.80;;;;;;5154554;27;20044;-69
2023/04/09 11:50:10;;;;;;;1.48;1.20;;;16.10;69.60;;;;;;5135234;27;20439;-69
2023/04/09 11:52:36;;;;;;;2.10;1.30;;;16.00;69.60;;;;;;5153926;27;20490;-70
2023/04/09 11:55:03;;;;;;;2.00;1.40;;;16.00;69.40;;;;;;5154077;27;20034;-69
2023/04/09 11:57:46;;;;;;;2.60;1.50;;;16.00;69.20;;;;;;5135523;27;20038;-69
2023/04/09 12:00:14;;;;;;;1.23;0.95;;;16.00;69.20;;;;;;5135340;27;20519;-69
2023/04/09 12:02:43;;;;;;;2.65;1.50;;;15.90;69.40;;;;;;5136112;27;20039;-69
2023/04/09 12:05:10;;;;;;;1.58;1.23;;;16.10;69.40;;;;;;5153884;27;20046;-69
2023/04/09 12:07:37;;;;;;;1.83;1.38;;;16.20;69.00;;;;;;5135855;27;20065;-70
2023/04/09 12:10:06;;;;;;;1.65;1.20;;;16.20;68.80;;;;;;5135460;27;20038;-69
2023/04/09 12:12:40;;;;;;;2.78;1.50;;;16.40;68.60;;;;;;5153881;27;20121;-69
2023/04/09 12:15:11;;;;;;;1.70;1.40;;;16.40;68.20;;;;;;5154755;27;20497;-69
2023/04/09 12:17:36;;;;;;;;;;;16.50;68.20;;;;;;5158419;27;20167;-71
2023/04/09 12:20:02;;;;;;;2.17;1.45;;;16.60;68.20;;;;;;5157407;27;19996;-71
2023/04/09 12:22:28;;;;;;;1.60;1.17;;;16.70;68.00;;;;;;5157241;27;20038;-69
2023/04/09 12:24:54;;;;;;;1.85;1.30;;;16.60;67.70;;;;;;5158256;27;20035;-69
2023/04/09 12:27:20;;;;;;;1.30;1.10;;;16.70;67.70;;;;;;5139077;27;20117;-70
2023/04/09 12:29:45;;;;;;;1.27;1.10;;;16.70;67.70;;;;;;5157197;27;20062;-70
2023/04/09 12:32:11;;;;;;;1.70;1.27;;;16.80;67.90;;;;;;5157032;27;20149;-70
2023/04/09 12:34:37;;;;;;;2.17;1.40;;;16.90;67.80;;;;;;5157011;27;20095;-70
2023/04/09 12:37:03;;;;;;;2.72;1.85;;;16.80;67.40;;;;;;5139206;27;20034;-70
2023/04/09 12:39:29;;;;;;;2.85;1.60;;;16.90;67.50;;;;;;5157320;27;20047;-70
2023/04/09 12:41:55;;;;;;;2.92;1.77;;;16.90;67.50;;;;;;5138297;27;20061;-70
2023/04/09 12:44:20;;;;;;;1.92;1.50;;;16.90;67.30;;;;;;5156890;27;20035;-70
2023/04/09 12:46:46;;;;;;;1.92;1.30;;;16.80;67.40;;;;;;5156818;27;20034;-70
2023/04/09 12:49:12;;;;;;;2.50;1.65;;;16.90;67.70;;;;;;5157315;27;20129;-70
2023/04/09 12:51:38;;;;;;;2.78;1.80;;;16.90;67.70;;;;;;5138097;27;20129;-70